Flight Track Log - Related Links

Times and Time Zones

All times are in EDT time to prevent confusion due to time zone crossing. See the SWA267 flight status page for this flight to view local times or setup timezone preferences in your user account.

Time Position Orientation Groundspeed Altitude Reporting Facility
EDT Latitude Longitude Course Direction KTS MPH feet Rate Location/Type
Mon 10:15:35 AM 28.4000 -81.3000 147° Southeast 175 201 700  Level Orlando TRACON
Mon 10:16:53 AM 28.3333 -81.2500 147° Southeast 209 241 3,700 2,359 Climbing Orlando TRACON
Mon 10:18:00 AM 28.3833 -81.2000 41° Northeast 276 318 6,400 2,835 Climbing Orlando TRACON
Mon 10:19:00 AM 28.4500 -81.2167 348° North 281 323 9,700 2,521 Climbing Orlando TRACON
Mon 10:21:08 AM 28.6406 -81.2722 346° North 353 406 14,300 2,457 Climbing Jacksonville Center
Mon 10:22:08 AM 28.7369 -81.2967 347° North 353 406 17,400 2,700 Climbing Jacksonville Center
Mon 10:23:08 AM 28.8372 -81.3211 348° North 353 406 19,700 2,150 Climbing Jacksonville Center
Mon 10:24:08 AM 28.9378 -81.3481 347° North 359 413 21,700 2,100 Climbing Jacksonville Center
Mon 10:25:08 AM 29.0425 -81.3772 346° North 367 422 23,900 1,850 Climbing Jacksonville Center
Mon 10:26:08 AM 29.1514 -81.3947 352° North 377 434 25,400 1,600 Climbing Jacksonville Center
Mon 10:27:08 AM 29.2642 -81.4047 356° North 394 453 27,100 1,400 Climbing Jacksonville Center
Mon 10:28:08 AM 29.3853 -81.4172 355° North 411 473 28,200 1,450 Climbing Jacksonville Center
Mon 10:29:08 AM 29.5150 -81.4319 354° North 428 493 30,000 1,800 Climbing Jacksonville Center
Mon 10:30:08 AM 29.6342 -81.4422 356° North 428 493 31,800 1,700 Climbing Jacksonville Center
Mon 10:31:08 AM 29.7531 -81.4547 355° North 428 493 33,400 1,500 Climbing Jacksonville Center
Mon 10:32:08 AM 29.8681 -81.4650 356° North 421 484 34,800 1,500 Climbing Jacksonville Center
Mon 10:33:08 AM 29.9831 -81.4778 355° North 421 484 36,400 1,100 Climbing Jacksonville Center
Mon 10:34:08 AM 30.0981 -81.4881 356° North 421 484 37,000 300 Climbing Jacksonville Center
Mon 10:35:08 AM 30.2108 -81.4961 356° North 416 479 37,000  Level Jacksonville Center
Mon 10:36:08 AM 30.3278 -81.5089 355° North 416 479 37,000  Level Jacksonville Center
Mon 10:37:08 AM 30.4469 -81.5022 North 416 479 37,000  Level Jacksonville Center
Mon 10:38:08 AM 30.5636 -81.4933 North 416 479 37,000  Level Jacksonville Center
Mon 10:39:08 AM 30.6742 -81.4819 North 426 490 37,000  Level Jacksonville Center
Mon 10:40:08 AM 30.7931 -81.4753 North 426 490 37,000  Level Jacksonville Center
Mon 10:41:08 AM 30.9097 -81.4567 North 426 490 37,000  Level Jacksonville Center
Mon 10:42:08 AM 31.0197 -81.3847 29° Northeast 426 490 37,000  Level Jacksonville Center
Mon 10:43:08 AM 31.1314 -81.3078 31° Northeast 439 505 37,000  Level Jacksonville Center
Mon 10:44:08 AM 31.2411 -81.2331 30° Northeast 452 520 37,000  Level Jacksonville Center
Mon 10:45:08 AM 31.3611 -81.1458 32° Northeast 463 533 37,000  Level Jacksonville Center
Mon 10:46:08 AM 31.4706 -81.0658 32° Northeast 463 533 37,000  Level Jacksonville Center
Mon 10:47:08 AM 31.5719 -80.9956 31° Northeast 463 533 37,000  Level Jacksonville Center
Mon 10:48:08 AM 31.6939 -80.9075 32° Northeast 463 533 37,000  Level Jacksonville Center
Mon 10:49:08 AM 31.7928 -80.8369 31° Northeast 463 533 37,000  Level Jacksonville Center
Mon 10:50:08 AM 31.9147 -80.7533 30° Northeast 463 533 37,000  Level Jacksonville Center
Mon 10:51:08 AM 32.0219 -80.6750 32° Northeast 458 527 37,000  Level Jacksonville Center
Mon 10:52:08 AM 32.1208 -80.6064 30° Northeast 458 527 37,000  Level Jacksonville Center
Mon 10:53:08 AM 32.2281 -80.5253 33° Northeast 458 527 37,000  Level Jacksonville Center
Mon 10:54:08 AM 32.3372 -80.4486 31° Northeast 458 527 37,000  Level Jacksonville Center
Mon 10:55:08 AM 32.4461 -80.3694 32° Northeast 458 527 37,000  Level Jacksonville Center
Mon 10:56:08 AM 32.5531 -80.2875 33° Northeast 458 527 37,000  Level Jacksonville Center
Mon 10:57:08 AM 32.6600 -80.2078 32° Northeast 458 527 37,000  Level Jacksonville Center
Mon 10:58:08 AM 32.7708 -80.1256 32° Northeast 453 521 37,000  Level Jacksonville Center
Mon 10:59:08 AM 32.8778 -80.0481 31° Northeast 453 521 37,000  Level Jacksonville Center
Mon 11:00:08 AM 32.9800 -79.9508 39° Northeast 453 521 37,000  Level Jacksonville Center
Mon 11:01:08 AM 33.0800 -79.8583 38° Northeast 459 528 37,000  Level Jacksonville Center
Mon 11:02:08 AM 33.1797 -79.7606 39° Northeast 459 528 37,000  Level Jacksonville Center
Mon 11:03:08 AM 33.2778 -79.6678 38° Northeast 454 522 37,000  Level Jacksonville Center
Mon 11:04:08 AM 33.3733 -79.5722 40° Northeast 454 522 37,000  Level Jacksonville Center
Mon 11:05:08 AM 33.4708 -79.4764 39° Northeast 454 522 37,000  Level Jacksonville Center
Mon 11:06:08 AM 33.5664 -79.3856 38° Northeast 454 522 37,000  Level Jacksonville Center
Mon 11:07:08 AM 33.6658 -79.2867 40° Northeast 454 522 37,000  Level Jacksonville Center
Mon 11:09:03 AM 33.8511 -79.1022 40° Northeast 436 502 37,000  Level Washington Center
Mon 11:10:03 AM 33.9478 -79.0089 39° Northeast 436 502 37,000  Level Washington Center
Mon 11:11:03 AM 34.0444 -78.9125 40° Northeast 436 502 37,000  Level Washington Center
Mon 11:12:03 AM 34.1431 -78.8161 39° Northeast 441 507 37,000  Level Washington Center
Mon 11:13:03 AM 34.2375 -78.7194 40° Northeast 441 507 37,000  Level Washington Center
Mon 11:14:03 AM 34.3358 -78.6225 39° Northeast 441 507 37,000 -150 Level Washington Center
Mon 11:15:03 AM 34.4319 -78.5278 39° Northeast 441 507 36,700 -600 Descending Washington Center
Mon 11:16:03 AM 34.5283 -78.4256 41° Northeast 441 507 35,800 -850 Descending Washington Center
Mon 11:17:03 AM 34.6289 -78.3281 39° Northeast 441 507 35,000 -400 Descending Washington Center
Mon 11:18:03 AM 34.7228 -78.2325 40° Northeast 441 507 35,000 -300 Level Washington Center
Mon 11:19:03 AM 34.7994 -78.1542 40° Northeast 441 507 34,400 -750 Descending Washington Center
Mon 11:20:03 AM 34.8978 -78.0483 41° Northeast 436 502 33,500 -950 Descending Washington Center
Mon 11:21:03 AM 35.0000 -77.9400 41° Northeast 436 502 32,500 -1,250 Descending Washington Center
Mon 11:22:03 AM 35.0939 -77.8411 41° Northeast 436 502 31,000 -1,250 Descending Washington Center
Mon 11:23:03 AM 35.1731 -77.7264 50° Northeast 436 502 30,000 -950 Descending Washington Center
Mon 11:24:03 AM 35.2564 -77.6092 49° Northeast 443 510 29,100 -950 Descending Washington Center
Mon 11:25:03 AM 35.3356 -77.4992 49° Northeast 443 510 28,100 -1,150 Descending Washington Center
Mon 11:26:03 AM 35.4347 -77.4325 29° Northeast 412 474 26,800 -1,150 Descending Washington Center
Mon 11:27:03 AM 35.5336 -77.3761 25° Northeast 400 460 25,800 -1,000 Descending Washington Center
Mon 11:28:03 AM 35.6344 -77.3172 25° Northeast 388 447 24,800 -1,700 Descending Washington Center
Mon 11:29:03 AM 35.7314 -77.2578 26° Northeast 388 447 22,400 -1,800 Descending Washington Center
Mon 11:30:03 AM 35.8261 -77.1983 27° Northeast 383 441 21,200 -700 Descending Washington Center
Mon 11:31:03 AM 35.9208 -77.1283 31° Northeast 383 441 21,000 -111 Descending Washington Center
Mon 11:31:51 AM 35.9883 -77.0758 32° Northeast 380 437 21,000 -400 Level Washington Center
Mon 11:33:03 AM 36.0958 -76.9931 32° Northeast 376 433 20,200 -1,323 Descending Washington Center
Mon 11:33:58 AM 36.1797 -76.9378 28° Northeast 394 453 18,200 -2,139 Descending Washington Center
Mon 11:34:58 AM 36.2725 -76.8672 32° Northeast 388 447 16,100 -2,331 Descending Washington Center
Mon 11:35:59 AM 36.3628 -76.8017 30° Northeast 375 432 13,500 -2,727 Descending Washington Center
Mon 11:36:59 AM 36.4533 -76.7206 36° Northeast 374 430 10,600 -1,636 Descending Washington Center
Mon 11:38:00 AM 36.5167 -76.6411 45° Northeast 306 352 10,200 -1,210 Descending Washington Center
Mon 11:39:03 AM 36.5736 -76.5644 47° Northeast 307 353 8,100 -1,826 Descending Washington Center
Mon 11:39:55 AM 36.6219 -76.5028 46° Northeast 287 330 6,700 -1,540 Descending Washington Center
Mon 11:40:56 AM 36.6789 -76.4361 43° Northeast 277 319 5,200 -1,438 Descending Washington Center
Mon 11:41:56 AM 36.7314 -76.3744 43° Northeast 260 299 3,800 -1,148 Descending Washington Center
Mon 11:42:51 AM 36.7756 -76.3283 40° Northeast 211 243 3,000 -983 Descending Washington Center
Mon 11:43:52 AM 36.8153 -76.2819 43° Northeast 182 209 1,900 -1,082 Descending Washington Center

Login

Don't have an account? Register now (free) for customized features, flight alerts, and more!